AFR7520 LFPG-LFRB
Flight info
| Callsign | AFR7520 |
|---|---|
| Flight time | 0h 53m |
| Altitude | 34000 |
| Route | LGL UN491 UPALO/N0461F330 UN585 FEJAC DCT BADUR T120 ANLEV |
| Aircraft | A320/M-SDE3FGHIRWY/LB1 |
Departure
| Time | 2026-04-30 19:18 |
|---|---|
| Airport | Charles de Gaulle International Airport (LFPG) |
Arrival
| Time | 2026-04-30 20:11 |
|---|---|
| Airport | Brest Bretagne airport (LFRB) |
| Time | Latitude | Longitude | Altitude | Speed | Heading |
|---|---|---|---|---|---|
| 2026-04-30 18:47 | 49.00661 | 2.57580 | 333 ft | 0 kts | 248° |
| 2026-04-30 19:03 | 49.00664 | 2.57599 | 333 ft | 2 kts | 251° |
| 2026-04-30 19:04 | 49.00666 | 2.57643 | 333 ft | 2 kts | 295° |
| 2026-04-30 19:04 | 49.00644 | 2.57673 | 333 ft | 2 kts | 344° |
| 2026-04-30 19:05 | 49.00632 | 2.57675 | 333 ft | 0 kts | 356° |
| 2026-04-30 19:09 | 49.00634 | 2.57675 | 333 ft | 0 kts | 356° |
| 2026-04-30 19:09 | 49.00646 | 2.57674 | 333 ft | 4 kts | 356° |
| 2026-04-30 19:09 | 49.00682 | 2.57671 | 333 ft | 5 kts | 356° |
| 2026-04-30 19:10 | 49.00757 | 2.57647 | 335 ft | 6 kts | 334° |
| 2026-04-30 19:10 | 49.00830 | 2.57575 | 336 ft | 6 kts | 336° |
| 2026-04-30 19:11 | 49.00869 | 2.57519 | 336 ft | 10 kts | 283° |
| 2026-04-30 19:11 | 49.00862 | 2.57261 | 337 ft | 13 kts | 265° |
| 2026-04-30 19:11 | 49.00854 | 2.57109 | 336 ft | 15 kts | 265° |
| 2026-04-30 19:12 | 49.00843 | 2.56927 | 336 ft | 18 kts | 265° |
| 2026-04-30 19:12 | 49.00833 | 2.56723 | 336 ft | 20 kts | 265° |
| 2026-04-30 19:12 | 49.00821 | 2.56510 | 339 ft | 19 kts | 264° |
| 2026-04-30 19:13 | 49.00782 | 2.56104 | 339 ft | 19 kts | 261° |
| 2026-04-30 19:13 | 49.00744 | 2.55692 | 339 ft | 19 kts | 261° |
| 2026-04-30 19:13 | 49.00729 | 2.55484 | 339 ft | 19 kts | 264° |
| 2026-04-30 19:14 | 49.00704 | 2.55317 | 339 ft | 15 kts | 238° |
| 2026-04-30 19:14 | 49.00613 | 2.55255 | 339 ft | 16 kts | 167° |
| 2026-04-30 19:14 | 49.00494 | 2.55308 | 336 ft | 18 kts | 162° |
| 2026-04-30 19:14 | 49.00370 | 2.55363 | 336 ft | 18 kts | 162° |
| 2026-04-30 19:15 | 49.00241 | 2.55421 | 334 ft | 20 kts | 161° |
| 2026-04-30 19:15 | 48.99977 | 2.55531 | 332 ft | 15 kts | 164° |
| 2026-04-30 19:15 | 48.99882 | 2.55594 | 330 ft | 15 kts | 144° |
| 2026-04-30 19:16 | 48.99833 | 2.55733 | 330 ft | 14 kts | 107° |
| 2026-04-30 19:16 | 48.99768 | 2.55813 | 330 ft | 5 kts | 163° |
| 2026-04-30 19:16 | 48.99672 | 2.55817 | 330 ft | 8 kts | 176° |
| 2026-04-30 19:17 | 48.99611 | 2.55854 | 329 ft | 10 kts | 127° |
| 2026-04-30 19:17 | 48.99603 | 2.55910 | 328 ft | 0 kts | 86° |
| 2026-04-30 19:17 | 48.99611 | 2.56082 | 329 ft | 49 kts | 84° |
| 2026-04-30 19:18 | 48.99709 | 2.57921 | 326 ft | 153 kts | 86° |
| 2026-04-30 19:18 | 48.99828 | 2.60113 | 1061 ft | 159 kts | 85° |
| 2026-04-30 19:18 | 48.99952 | 2.61771 | 1752 ft | 161 kts | 88° |
| 2026-04-30 19:19 | 49.00024 | 2.63430 | 2478 ft | 155 kts | 89° |
| 2026-04-30 19:19 | 49.00106 | 2.65042 | 3030 ft | 156 kts | 88° |
| 2026-04-30 19:19 | 49.00312 | 2.68613 | 3864 ft | 178 kts | 89° |
| 2026-04-30 19:20 | 49.00393 | 2.70559 | 4213 ft | 194 kts | 89° |
| 2026-04-30 19:20 | 49.00488 | 2.72731 | 4488 ft | 217 kts | 88° |
| 2026-04-30 19:20 | 49.00722 | 2.77703 | 5411 ft | 251 kts | 90° |
| 2026-04-30 19:21 | 49.00687 | 2.80422 | 5927 ft | 263 kts | 96° |
| 2026-04-30 19:21 | 49.00089 | 2.85941 | 7513 ft | 269 kts | 102° |
| 2026-04-30 19:22 | 48.99368 | 2.91560 | 9085 ft | 275 kts | 101° |
| 2026-04-30 19:22 | 48.97470 | 2.99804 | 10997 ft | 294 kts | 133° |
| 2026-04-30 19:23 | 48.91216 | 3.01816 | 11929 ft | 357 kts | 201° |
| 2026-04-30 19:24 | 48.87837 | 2.96026 | 12613 ft | 392 kts | 252° |
| 2026-04-30 19:24 | 48.87230 | 2.91980 | 13272 ft | 396 kts | 258° |
| 2026-04-30 19:24 | 48.86233 | 2.83684 | 14345 ft | 404 kts | 258° |
| 2026-04-30 19:25 | 48.84564 | 2.71060 | 15904 ft | 414 kts | 257° |
| 2026-04-30 19:26 | 48.83360 | 2.62423 | 16959 ft | 419 kts | 256° |
| 2026-04-30 19:26 | 48.82137 | 2.53727 | 17951 ft | 424 kts | 256° |
| 2026-04-30 19:26 | 48.81515 | 2.49310 | 18405 ft | 429 kts | 256° |
| 2026-04-30 19:27 | 48.80417 | 2.40399 | 19317 ft | 437 kts | 262° |
| 2026-04-30 19:27 | 48.80099 | 2.31124 | 20229 ft | 444 kts | 268° |
| 2026-04-30 19:28 | 48.80109 | 2.26410 | 20652 ft | 448 kts | 268° |
| 2026-04-30 19:28 | 48.80140 | 2.16889 | 21493 ft | 453 kts | 268° |
| 2026-04-30 19:29 | 48.80152 | 2.07241 | 22282 ft | 459 kts | 268° |
| 2026-04-30 19:29 | 48.80153 | 2.02452 | 22667 ft | 461 kts | 268° |
| 2026-04-30 19:30 | 48.80134 | 1.87673 | 23798 ft | 469 kts | 268° |
| 2026-04-30 19:30 | 48.80109 | 1.77719 | 24509 ft | 473 kts | 268° |
| 2026-04-30 19:31 | 48.80077 | 1.67702 | 25206 ft | 477 kts | 268° |
| 2026-04-30 19:31 | 48.80057 | 1.62655 | 25545 ft | 478 kts | 268° |
| 2026-04-30 19:31 | 48.80013 | 1.52556 | 26171 ft | 482 kts | 268° |
| 2026-04-30 19:32 | 48.79986 | 1.47447 | 26463 ft | 484 kts | 268° |
| 2026-04-30 19:32 | 48.79958 | 1.42339 | 26770 ft | 484 kts | 268° |
| 2026-04-30 19:32 | 48.79927 | 1.37195 | 27037 ft | 486 kts | 268° |
| 2026-04-30 19:32 | 48.79894 | 1.32131 | 27353 ft | 486 kts | 267° |
| 2026-04-30 19:33 | 48.79858 | 1.26948 | 27745 ft | 484 kts | 267° |
| 2026-04-30 19:33 | 48.79820 | 1.21916 | 28129 ft | 482 kts | 268° |
| 2026-04-30 19:33 | 48.79779 | 1.16758 | 28501 ft | 481 kts | 268° |
| 2026-04-30 19:33 | 48.79735 | 1.11652 | 28858 ft | 480 kts | 268° |
| 2026-04-30 19:34 | 48.79692 | 1.06591 | 29196 ft | 479 kts | 268° |
| 2026-04-30 19:34 | 48.79646 | 1.01564 | 29519 ft | 479 kts | 268° |
| 2026-04-30 19:34 | 48.79542 | 0.91491 | 30210 ft | 476 kts | 268° |
| 2026-04-30 19:35 | 48.79486 | 0.86436 | 30564 ft | 475 kts | 268° |
| 2026-04-30 19:35 | 48.79432 | 0.81492 | 30914 ft | 473 kts | 268° |
| 2026-04-30 19:35 | 48.79374 | 0.76467 | 31242 ft | 472 kts | 268° |
| 2026-04-30 19:35 | 48.79313 | 0.71536 | 31583 ft | 471 kts | 268° |
| 2026-04-30 19:36 | 48.79248 | 0.66566 | 31924 ft | 469 kts | 268° |
| 2026-04-30 19:36 | 48.79184 | 0.61652 | 32251 ft | 467 kts | 268° |
| 2026-04-30 19:36 | 48.79200 | 0.51795 | 32776 ft | 467 kts | 272° |
| 2026-04-30 19:37 | 48.79443 | 0.46895 | 32974 ft | 468 kts | 275° |
| 2026-04-30 19:37 | 48.79756 | 0.41909 | 33199 ft | 469 kts | 276° |
| 2026-04-30 19:37 | 48.80074 | 0.36981 | 33425 ft | 469 kts | 276° |
| 2026-04-30 19:37 | 48.80390 | 0.32057 | 33638 ft | 469 kts | 275° |
| 2026-04-30 19:38 | 48.80701 | 0.27154 | 33839 ft | 469 kts | 275° |
| 2026-04-30 19:38 | 48.81010 | 0.22206 | 34020 ft | 469 kts | 275° |
| 2026-04-30 19:38 | 48.81618 | 0.12308 | 34099 ft | 469 kts | 275° |
| 2026-04-30 19:39 | 48.82209 | 0.02481 | 34105 ft | 469 kts | 275° |
| 2026-04-30 19:39 | 48.82793 | -0.07381 | 34103 ft | 468 kts | 275° |
| 2026-04-30 19:40 | 48.83366 | -0.17211 | 34098 ft | 467 kts | 275° |
| 2026-04-30 19:40 | 48.83933 | -0.27077 | 34097 ft | 468 kts | 275° |
| 2026-04-30 19:41 | 48.84471 | -0.36909 | 34096 ft | 469 kts | 274° |
| 2026-04-30 19:41 | 48.85006 | -0.46903 | 34098 ft | 469 kts | 274° |
| 2026-04-30 19:42 | 48.85518 | -0.56790 | 34093 ft | 469 kts | 274° |
| 2026-04-30 19:42 | 48.86019 | -0.66629 | 34094 ft | 468 kts | 273° |
| 2026-04-30 19:43 | 48.86519 | -0.76537 | 34095 ft | 468 kts | 273° |
| 2026-04-30 19:44 | 48.87248 | -0.91309 | 34089 ft | 468 kts | 273° |
| 2026-04-30 19:44 | 48.87724 | -1.01173 | 34087 ft | 468 kts | 273° |
| 2026-04-30 19:45 | 48.88193 | -1.11056 | 34092 ft | 467 kts | 272° |
| 2026-04-30 19:45 | 48.88651 | -1.20921 | 34087 ft | 467 kts | 272° |
| 2026-04-30 19:46 | 48.89098 | -1.30724 | 34088 ft | 467 kts | 272° |
| 2026-04-30 19:46 | 48.89539 | -1.40579 | 34087 ft | 466 kts | 272° |
| 2026-04-30 19:47 | 48.89970 | -1.50398 | 34086 ft | 467 kts | 272° |
| 2026-04-30 19:47 | 48.90399 | -1.60272 | 34075 ft | 467 kts | 272° |
| 2026-04-30 19:47 | 48.90575 | -1.65136 | 33821 ft | 466 kts | 270° |
| 2026-04-30 19:48 | 48.90582 | -1.70066 | 33550 ft | 462 kts | 266° |
| 2026-04-30 19:48 | 48.90405 | -1.74896 | 33198 ft | 460 kts | 263° |
| 2026-04-30 19:48 | 48.90037 | -1.79770 | 32608 ft | 457 kts | 259° |
| 2026-04-30 19:48 | 48.89501 | -1.84453 | 31870 ft | 456 kts | 256° |
| 2026-04-30 19:49 | 48.88790 | -1.89133 | 31044 ft | 457 kts | 254° |
| 2026-04-30 19:49 | 48.87262 | -1.98485 | 29238 ft | 461 kts | 254° |
| 2026-04-30 19:49 | 48.86482 | -2.03221 | 28317 ft | 462 kts | 254° |
| 2026-04-30 19:50 | 48.85704 | -2.07920 | 27413 ft | 462 kts | 255° |
| 2026-04-30 19:50 | 48.84936 | -2.12631 | 26500 ft | 462 kts | 255° |
| 2026-04-30 19:50 | 48.84173 | -2.17338 | 25911 ft | 461 kts | 255° |
| 2026-04-30 19:50 | 48.83403 | -2.22067 | 25347 ft | 459 kts | 255° |
| 2026-04-30 19:51 | 48.82632 | -2.26764 | 24778 ft | 455 kts | 255° |
| 2026-04-30 19:51 | 48.81867 | -2.31396 | 24203 ft | 451 kts | 255° |
| 2026-04-30 19:51 | 48.81105 | -2.35959 | 23628 ft | 446 kts | 255° |
| 2026-04-30 19:51 | 48.80360 | -2.40436 | 23057 ft | 442 kts | 255° |
| 2026-04-30 19:52 | 48.79609 | -2.44946 | 22467 ft | 437 kts | 255° |
| 2026-04-30 19:52 | 48.78870 | -2.49363 | 21880 ft | 433 kts | 255° |
| 2026-04-30 19:52 | 48.78133 | -2.53740 | 21291 ft | 429 kts | 254° |
| 2026-04-30 19:52 | 48.77398 | -2.58112 | 20710 ft | 425 kts | 255° |
| 2026-04-30 19:53 | 48.76675 | -2.62427 | 20127 ft | 421 kts | 254° |
| 2026-04-30 19:53 | 48.75956 | -2.66693 | 19540 ft | 418 kts | 253° |
| 2026-04-30 19:53 | 48.75230 | -2.70977 | 18929 ft | 416 kts | 253° |
| 2026-04-30 19:53 | 48.74521 | -2.75152 | 18331 ft | 413 kts | 253° |
| 2026-04-30 19:54 | 48.73807 | -2.79344 | 17771 ft | 410 kts | 253° |
| 2026-04-30 19:54 | 48.73089 | -2.83543 | 17178 ft | 407 kts | 253° |
| 2026-04-30 19:54 | 48.72384 | -2.87654 | 16646 ft | 405 kts | 253° |
| 2026-04-30 19:54 | 48.71682 | -2.91739 | 16042 ft | 403 kts | 253° |
| 2026-04-30 19:55 | 48.70972 | -2.95865 | 15498 ft | 401 kts | 253° |
| 2026-04-30 19:55 | 48.70275 | -2.99889 | 14885 ft | 399 kts | 253° |
| 2026-04-30 19:55 | 48.69565 | -3.03948 | 14349 ft | 394 kts | 253° |
| 2026-04-30 19:55 | 48.68899 | -3.07898 | 13776 ft | 390 kts | 254° |
| 2026-04-30 19:56 | 48.68267 | -3.11901 | 13189 ft | 386 kts | 254° |
| 2026-04-30 19:56 | 48.67652 | -3.15825 | 12621 ft | 383 kts | 254° |
| 2026-04-30 19:56 | 48.67043 | -3.19682 | 12051 ft | 378 kts | 254° |
| 2026-04-30 19:56 | 48.66426 | -3.23556 | 11523 ft | 374 kts | 254° |
| 2026-04-30 19:57 | 48.65833 | -3.27274 | 11248 ft | 349 kts | 253° |
| 2026-04-30 19:57 | 48.65294 | -3.30653 | 11041 ft | 321 kts | 253° |
| 2026-04-30 19:57 | 48.64785 | -3.33822 | 10835 ft | 297 kts | 253° |
| 2026-04-30 19:57 | 48.64293 | -3.36873 | 10674 ft | 292 kts | 253° |
| 2026-04-30 19:58 | 48.63807 | -3.39865 | 10504 ft | 290 kts | 253° |
| 2026-04-30 19:58 | 48.63321 | -3.42841 | 10336 ft | 288 kts | 252° |
| 2026-04-30 19:58 | 48.62843 | -3.45767 | 10194 ft | 287 kts | 252° |
| 2026-04-30 19:58 | 48.62369 | -3.48668 | 10052 ft | 284 kts | 253° |
| 2026-04-30 19:59 | 48.61891 | -3.51597 | 9703 ft | 285 kts | 253° |
| 2026-04-30 19:59 | 48.61424 | -3.54473 | 9357 ft | 284 kts | 253° |
| 2026-04-30 19:59 | 48.60484 | -3.60196 | 8663 ft | 279 kts | 253° |
| 2026-04-30 20:00 | 48.60007 | -3.63063 | 8352 ft | 277 kts | 253° |
| 2026-04-30 20:00 | 48.59544 | -3.65847 | 8007 ft | 275 kts | 252° |
| 2026-04-30 20:00 | 48.59078 | -3.68663 | 7681 ft | 273 kts | 252° |
| 2026-04-30 20:00 | 48.58621 | -3.71400 | 7365 ft | 271 kts | 252° |
| 2026-04-30 20:01 | 48.57703 | -3.76850 | 6722 ft | 264 kts | 252° |
| 2026-04-30 20:01 | 48.57250 | -3.79542 | 6403 ft | 262 kts | 252° |
| 2026-04-30 20:01 | 48.56805 | -3.82197 | 6088 ft | 259 kts | 252° |
| 2026-04-30 20:02 | 48.55940 | -3.87338 | 5463 ft | 246 kts | 252° |
| 2026-04-30 20:02 | 48.55521 | -3.89816 | 5180 ft | 239 kts | 252° |
| 2026-04-30 20:03 | 48.54706 | -3.94605 | 4609 ft | 234 kts | 253° |
| 2026-04-30 20:03 | 48.54303 | -3.96969 | 4326 ft | 230 kts | 253° |
| 2026-04-30 20:03 | 48.53908 | -3.99301 | 4049 ft | 226 kts | 253° |
| 2026-04-30 20:03 | 48.53532 | -4.01516 | 3977 ft | 214 kts | 253° |
| 2026-04-30 20:04 | 48.53174 | -4.03630 | 3956 ft | 199 kts | 251° |
| 2026-04-30 20:04 | 48.52855 | -4.05550 | 4011 ft | 181 kts | 251° |
| 2026-04-30 20:04 | 48.52554 | -4.07275 | 3960 ft | 155 kts | 250° |
| 2026-04-30 20:05 | 48.52012 | -4.10170 | 3837 ft | 137 kts | 250° |
| 2026-04-30 20:05 | 48.51720 | -4.11520 | 3728 ft | 135 kts | 243° |
| 2026-04-30 20:05 | 48.51090 | -4.14202 | 3484 ft | 135 kts | 247° |
| 2026-04-30 20:06 | 48.50789 | -4.15531 | 3357 ft | 135 kts | 248° |
| 2026-04-30 20:06 | 48.50487 | -4.16858 | 3308 ft | 134 kts | 248° |
| 2026-04-30 20:06 | 48.50195 | -4.18209 | 3283 ft | 135 kts | 251° |
| 2026-04-30 20:06 | 48.49894 | -4.19552 | 3105 ft | 134 kts | 249° |
| 2026-04-30 20:07 | 48.49587 | -4.20866 | 2930 ft | 133 kts | 249° |
| 2026-04-30 20:07 | 48.49280 | -4.22166 | 2758 ft | 132 kts | 249° |
| 2026-04-30 20:07 | 48.48677 | -4.24751 | 2421 ft | 130 kts | 249° |
| 2026-04-30 20:08 | 48.48379 | -4.26042 | 2252 ft | 129 kts | 247° |
| 2026-04-30 20:08 | 48.48086 | -4.27320 | 2075 ft | 129 kts | 248° |
| 2026-04-30 20:08 | 48.47792 | -4.28597 | 1902 ft | 128 kts | 249° |
| 2026-04-30 20:08 | 48.47501 | -4.29855 | 1732 ft | 128 kts | 251° |
| 2026-04-30 20:09 | 48.47212 | -4.31137 | 1560 ft | 128 kts | 250° |
| 2026-04-30 20:09 | 48.46926 | -4.32404 | 1390 ft | 127 kts | 250° |
| 2026-04-30 20:09 | 48.46355 | -4.34917 | 1054 ft | 127 kts | 251° |
| 2026-04-30 20:10 | 48.45787 | -4.37434 | 719 ft | 126 kts | 250° |
| 2026-04-30 20:10 | 48.45501 | -4.38695 | 553 ft | 126 kts | 251° |
| 2026-04-30 20:10 | 48.45223 | -4.39933 | 386 ft | 126 kts | 252° |
| 2026-04-30 20:11 | 48.44747 | -4.42023 | 321 ft | 62 kts | 253° |
| 2026-04-30 20:11 | 48.44628 | -4.42549 | 312 ft | 48 kts | 252° |
| 2026-04-30 20:11 | 48.44550 | -4.42900 | 306 ft | 30 kts | 252° |
| 2026-04-30 20:12 | 48.44419 | -4.43482 | 299 ft | 28 kts | 253° |
| 2026-04-30 20:12 | 48.44373 | -4.43729 | 297 ft | 16 kts | 273° |
| 2026-04-30 20:12 | 48.44353 | -4.43812 | 297 ft | 8 kts | 142° |
| 2026-04-30 20:13 | 48.44364 | -4.43714 | 297 ft | 13 kts | 70° |
| 2026-04-30 20:13 | 48.44401 | -4.43546 | 298 ft | 22 kts | 74° |
| 2026-04-30 20:13 | 48.44459 | -4.43277 | 301 ft | 29 kts | 73° |
| 2026-04-30 20:13 | 48.44531 | -4.42971 | 304 ft | 29 kts | 72° |
| 2026-04-30 20:14 | 48.44594 | -4.42693 | 309 ft | 25 kts | 68° |
| 2026-04-30 20:14 | 48.44648 | -4.42461 | 313 ft | 22 kts | 73° |
| 2026-04-30 20:14 | 48.44686 | -4.42287 | 317 ft | 13 kts | 72° |
| 2026-04-30 20:14 | 48.44678 | -4.42166 | 319 ft | 12 kts | 137° |
| 2026-04-30 20:15 | 48.44598 | -4.42116 | 319 ft | 12 kts | 162° |
| 2026-04-30 20:15 | 48.44524 | -4.42084 | 320 ft | 8 kts | 165° |
| 2026-04-30 20:15 | 48.44463 | -4.42053 | 320 ft | 9 kts | 159° |
| 2026-04-30 20:15 | 48.44452 | -4.42047 | 320 ft | 0 kts | 162° |
| 2026-04-30 20:16 | 48.44440 | -4.42041 | 320 ft | 2 kts | 162° |
| 2026-04-30 20:16 | 48.44427 | -4.42034 | 320 ft | 0 kts | 161° |